Time;durP1;ratioP1;P1;durP2;ratioP2;P2;SDS_P1;SDS_P2;PMS_P1;PMS_P2;Temp;Humidity;BMP_temperature;BMP_pressure;BME280_temperature;BME280_humidity;BME280_pressure;Samples;Min_cycle;Max_cycle;Signal;HPM_P1;HPM_P2
2022/02/25 00:01:06;;;;;;;2.50;1.90;;;1.60;99.90;;;;;;5001406;28;20182;-71
2022/02/25 00:03:32;;;;;;;4.72;2.20;;;1.50;99.90;;;;;;5015585;28;20362;-70
2022/02/25 00:05:59;;;;;;;3.28;2.45;;;1.50;99.90;;;;;;5001134;28;20045;-71
2022/02/25 00:08:26;;;;;;;3.17;2.28;;;1.60;99.90;;;;;;5000702;28;20084;-71
2022/02/25 00:10:53;;;;;;;2.88;1.92;;;1.50;99.90;;;;;;4997217;28;20716;-71
2022/02/25 00:13:20;;;;;;;2.45;1.55;;;1.50;99.90;;;;;;5000885;28;20077;-71
2022/02/25 00:15:46;;;;;;;2.75;1.90;;;1.50;99.90;;;;;;5000958;28;20127;-70
2022/02/25 00:18:13;;;;;;;2.30;2.05;;;1.50;99.90;;;;;;5008344;28;20096;-71
2022/02/25 00:20:40;;;;;;;5.28;2.70;;;1.50;99.90;;;;;;5013871;28;20084;-72
2022/02/25 00:23:07;;;;;;;5.57;2.85;;;1.50;99.90;;;;;;4999326;28;20506;-74
2022/02/25 00:25:33;;;;;;;3.15;2.50;;;1.60;99.90;;;;;;4999360;28;20081;-71
2022/02/25 00:28:00;;;;;;;4.90;2.90;;;1.60;99.90;;;;;;5000770;28;20085;-70
2022/02/25 00:30:27;;;;;;;10.45;3.50;;;1.50;99.90;;;;;;5015758;28;20069;-71
2022/02/25 00:32:53;;;;;;;6.93;3.53;;;1.50;99.90;;;;;;4999511;28;20062;-71
2022/02/25 00:35:20;;;;;;;9.40;2.95;;;1.50;99.90;;;;;;5000596;28;20523;-71
2022/02/25 00:37:49;;;;;;;6.03;2.50;;;1.50;99.90;;;;;;5000006;28;20037;-71
2022/02/25 00:40:16;;;;;;;3.75;3.35;;;1.50;99.90;;;;;;5000850;28;20068;-72
2022/02/25 00:42:42;;;;;;;5.10;2.80;;;1.50;99.90;;;;;;5001628;28;20088;-71
2022/02/25 00:45:09;;;;;;;5.72;2.70;;;1.50;99.90;;;;;;5000578;28;20069;-71
2022/02/25 00:47:37;;;;;;;6.07;3.08;;;1.50;99.90;;;;;;5007569;28;20084;-70
2022/02/25 00:50:06;;;;;;;7.47;3.33;;;1.50;99.90;;;;;;5030421;28;20064;-71
2022/02/25 00:52:32;;;;;;;9.95;2.92;;;1.50;99.90;;;;;;5020490;28;20215;-71
2022/02/25 00:54:59;;;;;;;13.15;3.22;;;1.50;99.90;;;;;;5017015;28;20045;-71
2022/02/25 00:57:26;;;;;;;7.72;3.53;;;1.50;99.90;;;;;;5000069;28;20385;-72
2022/02/25 00:59:54;;;;;;;8.48;3.92;;;1.50;99.90;;;;;;5000640;28;20042;-71
2022/02/25 01:02:22;;;;;;;9.48;4.00;;;1.40;99.90;;;;;;4998164;28;20177;-71
2022/02/25 01:04:49;;;;;;;4.95;3.63;;;1.40;99.90;;;;;;4998040;28;20177;-71
2022/02/25 01:07:16;;;;;;;5.43;2.80;;;1.40;99.90;;;;;;4999221;28;20262;-71
2022/02/25 01:09:43;;;;;;;7.18;3.55;;;1.40;99.90;;;;;;5000397;28;20125;-73
2022/02/25 01:12:11;;;;;;;8.88;3.63;;;1.40;99.90;;;;;;4998795;28;20141;-72
2022/02/25 01:14:37;;;;;;;8.25;4.13;;;1.40;99.90;;;;;;5000879;28;20508;-72
2022/02/25 01:17:04;;;;;;;7.68;4.00;;;1.50;99.90;;;;;;5006255;28;20298;-73
2022/02/25 01:19:31;;;;;;;6.38;3.47;;;1.50;99.90;;;;;;5007328;28;20042;-71
2022/02/25 01:21:58;;;;;;;7.65;3.88;;;1.40;99.90;;;;;;5001185;28;20074;-70
2022/02/25 01:24:24;;;;;;;5.60;2.78;;;1.40;99.90;;;;;;4999523;28;20065;-72
2022/02/25 01:26:51;;;;;;;17.50;4.30;;;1.40;99.90;;;;;;5001577;28;20131;-70
2022/02/25 01:29:18;;;;;;;8.60;3.60;;;1.40;99.90;;;;;;5000973;28;20325;-73
2022/02/25 01:31:46;;;;;;;8.82;3.75;;;1.40;99.90;;;;;;4999951;28;20141;-73
2022/02/25 01:34:12;;;;;;;9.32;3.28;;;1.40;99.90;;;;;;5000408;28;20136;-73
2022/02/25 01:36:41;;;;;;;6.63;3.55;;;1.50;99.90;;;;;;5000259;28;20408;-72
2022/02/25 01:39:08;;;;;;;8.43;4.13;;;1.50;99.90;;;;;;5014423;28;20053;-73
2022/02/25 01:41:35;;;;;;;9.80;3.67;;;1.50;99.90;;;;;;4998332;28;20133;-72
2022/02/25 01:44:17;;;;;;;9.48;4.28;;;1.50;99.90;;;;;;5000065;28;20468;-73
2022/02/25 01:46:47;;;;;;;6.22;3.83;;;1.50;99.90;;;;;;5002402;28;20100;-72
2022/02/25 01:49:14;;;;;;;10.38;4.50;;;1.60;99.90;;;;;;5025598;28;20312;-73
2022/02/25 01:51:41;;;;;;;5.95;3.97;;;1.60;99.90;;;;;;5022742;28;20069;-73
2022/02/25 01:54:08;;;;;;;10.68;4.53;;;1.60;99.90;;;;;;5024116;28;20524;-73
2022/02/25 01:56:38;;;;;;;6.85;4.43;;;1.60;99.90;;;;;;5006153;28;20078;-73
2022/02/25 01:59:05;;;;;;;7.13;4.53;;;1.60;99.90;;;;;;5003376;28;20080;-72
2022/02/25 02:01:32;;;;;;;8.82;5.47;;;1.60;99.90;;;;;;5003843;28;20743;-73
2022/02/25 02:04:00;;;;;;;10.73;5.65;;;1.60;99.90;;;;;;5001397;28;20072;-73
2022/02/25 02:06:28;;;;;;;11.90;4.20;;;1.60;99.90;;;;;;5002156;28;20471;-73
2022/02/25 02:08:55;;;;;;;16.23;5.30;;;1.60;99.90;;;;;;5002619;28;20050;-73
2022/02/25 02:11:31;;;;;;;10.55;4.85;;;1.60;99.90;;;;;;5001616;28;20042;-73
2022/02/25 02:13:59;;;;;;;7.00;3.72;;;1.60;99.90;;;;;;5004066;28;20088;-73
2022/02/25 02:16:26;;;;;;;13.88;5.80;;;1.60;99.90;;;;;;5005226;28;20062;-73
2022/02/25 02:18:54;;;;;;;12.52;5.97;;;1.60;99.90;;;;;;5027341;28;20045;-72
2022/02/25 02:21:30;;;;;;;15.73;5.38;;;1.70;99.90;;;;;;5002035;28;20881;-72
2022/02/25 02:23:58;;;;;;;7.90;4.22;;;1.60;99.90;;;;;;5004135;28;20053;-74
2022/02/25 02:26:27;;;;;;;13.30;4.85;;;1.60;99.90;;;;;;5001901;28;20057;-73
2022/02/25 02:28:56;;;;;;;12.27;5.63;;;1.60;99.90;;;;;;5001446;28;20065;-72
2022/02/25 02:31:24;;;;;;;11.02;5.80;;;1.50;99.90;;;;;;5001287;28;20061;-73
2022/02/25 02:33:51;;;;;;;7.55;4.90;;;1.50;99.90;;;;;;5003937;28;20046;-73
2022/02/25 02:36:18;;;;;;;13.98;4.95;;;1.60;99.90;;;;;;5003372;28;20069;-73
2022/02/25 02:38:45;;;;;;;10.98;4.53;;;1.60;99.90;;;;;;5002969;28;20666;-74
2022/02/25 02:41:12;;;;;;;13.38;5.13;;;1.60;99.90;;;;;;4997633;28;20152;-73
2022/02/25 02:43:39;;;;;;;15.98;6.13;;;1.50;99.90;;;;;;5003040;28;20242;-73
2022/02/25 02:46:07;;;;;;;25.85;5.35;;;1.60;99.90;;;;;;5000730;28;20440;-73
2022/02/25 02:48:34;;;;;;;8.35;4.43;;;1.60;99.90;;;;;;5013968;28;20092;-74
2022/02/25 02:51:02;;;;;;;12.23;5.15;;;1.60;99.90;;;;;;5014207;28;20060;-74
2022/02/25 02:53:29;;;;;;;10.27;4.63;;;1.70;99.90;;;;;;4998718;28;20526;-73
2022/02/25 02:55:56;;;;;;;16.98;5.72;;;1.70;99.90;;;;;;5001772;28;20579;-73
2022/02/25 02:58:23;;;;;;;9.25;4.47;;;1.70;99.90;;;;;;5002814;28;20084;-73
2022/02/25 03:00:51;;;;;;;13.40;4.88;;;1.70;99.90;;;;;;5002188;28;20645;-73
2022/02/25 03:03:19;;;;;;;10.82;4.75;;;1.70;99.90;;;;;;5000840;28;20294;-74
2022/02/25 03:05:47;;;;;;;7.90;4.28;;;1.70;99.90;;;;;;5002194;28;20049;-73
2022/02/25 03:08:15;;;;;;;12.13;5.72;;;1.70;99.90;;;;;;5001910;28;20049;-74
2022/02/25 03:10:43;;;;;;;4.70;2.97;;;1.70;99.90;;;;;;5000459;28;20463;-74
2022/02/25 03:13:14;;;;;;;14.45;5.75;;;1.70;99.90;;;;;;5002104;28;20524;-75
2022/02/25 03:15:43;;;;;;;10.93;4.43;;;1.70;99.90;;;;;;5002643;28;20046;-73
2022/02/25 03:18:11;;;;;;;14.73;3.83;;;1.70;99.90;;;;;;4993115;28;20042;-74
2022/02/25 03:20:38;;;;;;;9.63;4.45;;;1.60;99.90;;;;;;5019860;28;20131;-74
2022/02/25 03:23:04;;;;;;;8.80;5.07;;;1.60;99.90;;;;;;5043884;23;20107;-75
2022/02/25 03:25:31;;;;;;;13.50;5.13;;;1.60;99.90;;;;;;5015487;28;20055;-76
2022/02/25 03:27:58;;;;;;;11.10;4.25;;;1.60;99.90;;;;;;5034691;28;20056;-75
2022/02/25 03:30:25;;;;;;;17.60;5.50;;;1.60;99.90;;;;;;5012577;28;20052;-75
2022/02/25 03:32:52;;;;;;;10.32;4.85;;;1.60;99.90;;;;;;5012080;28;20684;-73
2022/02/25 03:35:20;;;;;;;9.48;5.47;;;1.50;99.90;;;;;;4996337;28;20057;-75
2022/02/25 03:37:47;;;;;;;13.35;5.28;;;1.50;99.90;;;;;;5012610;28;20049;-75
2022/02/25 03:40:17;;;;;;;12.82;5.28;;;1.50;99.90;;;;;;5010695;28;20170;-75
2022/02/25 03:42:44;;;;;;;37.58;6.38;;;1.50;99.90;;;;;;5012734;28;20103;-75
2022/02/25 03:45:13;;;;;;;10.38;4.72;;;1.50;99.90;;;;;;4994947;28;20274;-73
2022/02/25 03:47:40;;;;;;;10.98;4.70;;;1.50;99.90;;;;;;5009940;28;20461;-74
2022/02/25 03:50:08;;;;;;;8.93;4.93;;;1.50;99.90;;;;;;5012344;28;20053;-73
2022/02/25 03:52:35;;;;;;;10.88;5.43;;;1.50;99.90;;;;;;4995561;28;20576;-74
2022/02/25 03:55:04;;;;;;;13.27;5.50;;;1.50;99.90;;;;;;5012613;28;20527;-77
2022/02/25 03:57:31;;;;;;;15.15;5.93;;;1.50;99.90;;;;;;4995361;28;20377;-74
2022/02/25 03:59:58;;;;;;;9.98;5.85;;;1.50;99.90;;;;;;5012735;28;20253;-75
2022/02/25 04:02:27;;;;;;;14.65;5.68;;;1.50;99.90;;;;;;5012410;28;20045;-72
2022/02/25 04:04:54;;;;;;;16.42;6.65;;;1.50;99.90;;;;;;5012574;28;20077;-75
2022/02/25 04:07:20;;;;;;;13.05;7.53;;;1.50;99.90;;;;;;5011044;28;20468;-75
2022/02/25 04:09:47;;;;;;;15.82;6.82;;;1.50;99.90;;;;;;5000370;28;20045;-72
2022/02/25 04:12:14;;;;;;;14.32;7.95;;;1.50;99.90;;;;;;5023567;28;20278;-75
2022/02/25 04:14:41;;;;;;;11.45;6.00;;;1.50;99.90;;;;;;5012053;28;20588;-75
2022/02/25 04:17:08;;;;;;;14.80;6.53;;;1.60;99.90;;;;;;4995411;28;20223;-74
2022/02/25 04:19:35;;;;;;;18.67;6.95;;;1.50;99.90;;;;;;4988832;28;20065;-75
2022/02/25 04:22:02;;;;;;;10.95;6.47;;;1.50;99.90;;;;;;4993129;28;20085;-72
2022/02/25 04:24:29;;;;;;;15.07;6.47;;;1.60;99.90;;;;;;5003025;28;20328;-75
2022/02/25 04:26:56;;;;;;;11.68;8.10;;;1.60;99.90;;;;;;5013306;28;20433;-75
2022/02/25 04:29:23;;;;;;;15.48;6.90;;;1.60;99.90;;;;;;5013968;28;20075;-72
2022/02/25 04:31:50;;;;;;;11.45;6.97;;;1.60;99.90;;;;;;4994938;28;20053;-75
2022/02/25 04:34:17;;;;;;;18.08;7.43;;;1.70;99.90;;;;;;4990981;28;20128;-74
2022/02/25 04:36:45;;;;;;;9.60;5.93;;;1.70;99.90;;;;;;4994752;28;20518;-73
2022/02/25 04:39:12;;;;;;;14.98;5.97;;;1.70;99.90;;;;;;5011127;28;20045;-75
2022/02/25 04:41:38;;;;;;;19.25;8.65;;;1.70;99.90;;;;;;5010652;28;20095;-76
2022/02/25 04:44:06;;;;;;;22.73;6.32;;;1.70;99.90;;;;;;5011601;28;20127;-74
2022/02/25 04:46:33;;;;;;;12.43;6.38;;;1.80;99.90;;;;;;4994679;28;20050;-77
2022/02/25 04:49:00;;;;;;;15.05;6.75;;;1.70;99.90;;;;;;5012017;28;20041;-76
2022/02/25 04:51:27;;;;;;;15.25;7.30;;;1.70;99.90;;;;;;5013256;28;20080;-76
2022/02/25 04:53:54;;;;;;;24.98;7.03;;;1.70;99.90;;;;;;5018275;28;20072;-73
2022/02/25 04:56:23;;;;;;;12.02;6.15;;;1.70;99.90;;;;;;5014754;28;20112;-77
2022/02/25 04:58:50;;;;;;;20.50;7.15;;;1.70;99.90;;;;;;5012839;28;20045;-76
2022/02/25 05:01:17;;;;;;;21.27;5.82;;;1.70;99.90;;;;;;5011268;28;20357;-76
2022/02/25 05:03:45;;;;;;;18.35;6.65;;;1.70;99.90;;;;;;5013687;28;20041;-77
2022/02/25 05:06:12;;;;;;;15.48;5.95;;;1.80;99.90;;;;;;5011088;28;20079;-76
2022/02/25 05:08:40;;;;;;;22.80;7.70;;;1.80;99.90;;;;;;5009831;28;20049;-75
2022/02/25 05:11:07;;;;;;;10.77;5.30;;;1.80;99.90;;;;;;5012602;28;20053;-73
2022/02/25 05:13:34;;;;;;;9.93;5.30;;;1.80;99.90;;;;;;5009868;28;20096;-73
2022/02/25 05:21:52;;;;;;;12.35;5.30;;;1.80;99.90;;;;;;4969312;28;20438;-75
2022/02/25 05:24:19;;;;;;;8.95;4.57;;;1.80;99.90;;;;;;4973822;28;20046;-71
2022/02/25 05:26:46;;;;;;;17.95;6.43;;;1.80;99.90;;;;;;4984807;28;20100;-74
2022/02/25 05:29:13;;;;;;;9.00;5.57;;;1.70;99.90;;;;;;4996589;28;20056;-73
2022/02/25 05:31:40;;;;;;;14.18;6.35;;;1.70;99.90;;;;;;4996286;28;20096;-76
2022/02/25 05:34:07;;;;;;;17.35;6.22;;;1.70;99.90;;;;;;4996854;28;20053;-75
2022/02/25 05:36:33;;;;;;;8.05;4.78;;;1.60;99.90;;;;;;5001462;28;20114;-73
2022/02/25 05:39:00;;;;;;;14.82;6.00;;;1.60;99.90;;;;;;5016915;28;20045;-74
2022/02/25 05:41:27;;;;;;;16.02;5.65;;;1.60;99.90;;;;;;5016566;28;20472;-75
2022/02/25 05:43:54;;;;;;;14.60;4.97;;;1.60;99.90;;;;;;5016080;28;20060;-75
2022/02/25 05:46:21;;;;;;;11.77;5.57;;;1.50;99.90;;;;;;5014466;28;20045;-76
2022/02/25 05:48:48;;;;;;;11.02;4.60;;;1.50;99.90;;;;;;5014166;28;20579;-73
2022/02/25 05:51:15;;;;;;;14.98;5.55;;;1.50;99.90;;;;;;5014622;28;20045;-72
2022/02/25 05:53:41;;;;;;;16.45;5.95;;;1.40;99.90;;;;;;5015838;28;20084;-74
2022/02/25 05:56:08;;;;;;;8.15;4.45;;;1.40;99.90;;;;;;5016624;28;20041;-74
2022/02/25 05:58:35;;;;;;;10.73;4.60;;;1.40;99.90;;;;;;5016568;28;20057;-73
2022/02/25 06:01:02;;;;;;;8.35;4.95;;;1.50;99.90;;;;;;5015246;28;20496;-73
2022/02/25 06:03:29;;;;;;;12.13;4.95;;;1.50;99.90;;;;;;5015979;28;20132;-73
2022/02/25 06:05:56;;;;;;;13.63;5.03;;;1.50;99.90;;;;;;5017102;28;20638;-75
2022/02/25 06:08:23;;;;;;;14.85;5.10;;;1.40;99.90;;;;;;5015107;28;20120;-74
2022/02/25 06:10:49;;;;;;;7.47;4.40;;;1.40;99.90;;;;;;5014914;28;20519;-71
2022/02/25 06:13:16;;;;;;;12.20;5.72;;;1.40;99.90;;;;;;5012671;28;20053;-75
2022/02/25 06:15:44;;;;;;;12.68;5.88;;;1.40;99.90;;;;;;5011811;28;20049;-74
2022/02/25 06:18:12;;;;;;;11.30;5.18;;;1.40;99.90;;;;;;4996312;28;20383;-74
2022/02/25 06:20:39;;;;;;;13.88;5.50;;;1.40;99.90;;;;;;5012984;28;20060;-75
2022/02/25 06:23:07;;;;;;;9.48;4.72;;;1.40;99.90;;;;;;5013923;28;20064;-74
2022/02/25 06:25:34;;;;;;;21.98;6.28;;;1.40;99.90;;;;;;5014788;28;20080;-75
2022/02/25 06:28:03;;;;;;;13.85;5.18;;;1.40;99.90;;;;;;5020606;28;20198;-75
2022/02/25 06:30:30;;;;;;;11.73;4.93;;;1.40;99.90;;;;;;5022764;28;20038;-75
2022/02/25 06:32:57;;;;;;;19.02;6.47;;;1.50;99.90;;;;;;5014368;28;20121;-78
2022/02/25 06:35:28;;;;;;;15.98;6.30;;;1.50;99.90;;;;;;5012503;28;20076;-75
2022/02/25 06:37:56;;;;;;;21.02;7.55;;;1.50;99.90;;;;;;5011955;28;20049;-74
2022/02/25 06:40:23;;;;;;;11.57;7.07;;;1.50;99.90;;;;;;5013565;28;20056;-75
2022/02/25 06:42:50;;;;;;;22.33;8.07;;;1.50;99.90;;;;;;5014893;28;20041;-72
2022/02/25 06:45:19;;;;;;;12.70;7.63;;;1.50;99.90;;;;;;5012423;28;20033;-76
2022/02/25 06:47:47;;;;;;;15.88;7.85;;;1.50;99.90;;;;;;4995093;28;20776;-73
2022/02/25 06:50:16;;;;;;;18.48;7.53;;;1.60;99.90;;;;;;5008501;28;20255;-74
2022/02/25 06:52:43;;;;;;;18.83;8.60;;;1.60;99.90;;;;;;5012997;28;20056;-75
2022/02/25 06:55:13;;;;;;;13.95;7.50;;;1.60;99.90;;;;;;5012504;28;20621;-76
2022/02/25 06:58:02;;;;;;;16.23;7.78;;;1.60;99.90;;;;;;5013160;28;20128;-73
2022/02/25 07:00:29;;;;;;;17.90;8.20;;;1.70;99.90;;;;;;5013416;28;20100;-72
2022/02/25 07:02:57;;;;;;;16.25;7.13;;;1.70;99.90;;;;;;4992528;28;20044;-74
2022/02/25 07:05:25;;;;;;;14.68;7.38;;;1.70;99.90;;;;;;5011706;28;20053;-71
2022/02/25 07:07:52;;;;;;;9.10;7.28;;;1.70;99.90;;;;;;5013894;28;20111;-72
2022/02/25 07:10:19;;;;;;;12.60;7.70;;;1.80;99.90;;;;;;5011518;28;20049;-74
2022/02/25 07:12:46;;;;;;;20.13;9.15;;;1.80;99.90;;;;;;5014220;28;20379;-71
2022/02/25 07:15:15;;;;;;;17.48;7.57;;;1.80;99.90;;;;;;5013604;28;20498;-72
2022/02/25 07:17:42;;;;;;;8.20;7.03;;;1.90;99.90;;;;;;5012702;28;20077;-73
2022/02/25 07:20:09;;;;;;;18.27;7.15;;;1.90;99.90;;;;;;5014139;28;20088;-73
2022/02/25 07:22:44;;;;;;;21.67;8.18;;;2.00;99.90;;;;;;5014060;28;20304;-72
2022/02/25 07:25:11;;;;;;;9.75;7.22;;;2.00;99.90;;;;;;5014197;28;20141;-73
2022/02/25 07:27:37;;;;;;;16.42;8.45;;;2.10;99.90;;;;;;5012487;28;20092;-75
2022/02/25 07:30:05;;;;;;;14.88;8.75;;;2.10;99.90;;;;;;5010101;28;20267;-74
2022/02/25 07:32:32;;;;;;;15.38;8.25;;;2.10;99.90;;;;;;5011950;28;20103;-75
2022/02/25 07:34:59;;;;;;;9.23;7.63;;;2.20;99.90;;;;;;5011889;28;20119;-73
2022/02/25 07:37:26;;;;;;;12.93;8.10;;;2.30;99.90;;;;;;5014207;28;20046;-76
2022/02/25 07:39:53;;;;;;;11.73;8.38;;;2.30;99.90;;;;;;5013215;28;20045;-73
2022/02/25 07:42:23;;;;;;;20.23;8.32;;;2.40;99.90;;;;;;5013181;28;20144;-72
2022/02/25 07:44:50;;;;;;;16.10;8.27;;;2.40;99.90;;;;;;5011831;28;20041;-70
2022/02/25 07:47:19;;;;;;;21.27;9.35;;;2.40;99.90;;;;;;5012878;28;20528;-76
2022/02/25 07:49:46;;;;;;;22.45;9.15;;;2.50;99.90;;;;;;5013513;28;20811;-73
2022/02/25 07:52:14;;;;;;;21.33;10.23;;;2.60;99.90;;;;;;5011439;28;20429;-75
2022/02/25 07:54:41;;;;;;;13.63;8.05;;;2.60;99.90;;;;;;4996357;28;20053;-75
2022/02/25 07:57:08;;;;;;;24.52;11.10;;;2.60;99.90;;;;;;4995959;28;20045;-74
2022/02/25 07:59:35;;;;;;;17.30;9.27;;;2.70;99.90;;;;;;5013962;28;20045;-72
2022/02/25 08:02:02;;;;;;;21.77;8.57;;;2.70;99.90;;;;;;5013326;28;20528;-72
2022/02/25 08:04:30;;;;;;;14.93;8.75;;;2.80;99.90;;;;;;5010869;28;20043;-75
2022/02/25 08:07:17;;;;;;;12.18;8.30;;;2.90;99.90;;;;;;5010687;28;20045;-75
2022/02/25 08:09:44;;;;;;;17.92;9.65;;;2.90;99.90;;;;;;5012755;28;20490;-74
2022/02/25 08:12:11;;;;;;;10.07;9.07;;;3.00;99.90;;;;;;5019998;28;20887;-73
2022/02/25 08:14:40;;;;;;;21.02;9.95;;;3.10;99.90;;;;;;5015753;28;20419;-73
2022/02/25 08:17:07;;;;;;;12.10;9.65;;;3.00;99.90;;;;;;4997988;28;20049;-75
2022/02/25 08:19:35;;;;;;;17.45;8.50;;;3.10;99.90;;;;;;5013744;28;20046;-73
2022/02/25 08:22:02;;;;;;;12.15;8.00;;;3.10;99.90;;;;;;5013831;28;20045;-76
2022/02/25 08:24:32;;;;;;;17.35;9.40;;;3.10;99.90;;;;;;5013572;28;20572;-74
2022/02/25 08:26:58;;;;;;;12.10;8.85;;;3.00;99.90;;;;;;5013826;28;20053;-76
2022/02/25 08:29:25;;;;;;;17.60;9.27;;;2.90;99.90;;;;;;5014919;28;20057;-75
2022/02/25 08:31:52;;;;;;;24.92;10.52;;;3.00;99.90;;;;;;5013843;28;20061;-76
2022/02/25 08:34:19;;;;;;;10.80;8.77;;;3.20;99.90;;;;;;5011132;28;20076;-75
2022/02/25 08:36:47;;;;;;;21.98;10.05;;;3.30;99.90;;;;;;5013106;28;20108;-77
2022/02/25 08:39:14;;;;;;;13.18;10.30;;;3.50;99.90;;;;;;5015788;28;20048;-74
2022/02/25 08:41:41;;;;;;;25.83;14.02;;;3.50;99.90;;;;;;5013811;28;20099;-75
2022/02/25 08:44:08;;;;;;;26.20;10.48;;;3.30;99.90;;;;;;5019326;28;20044;-76
2022/02/25 08:46:37;;;;;;;13.65;8.20;;;3.30;99.90;;;;;;5030109;28;20410;-73
2022/02/25 08:49:05;;;;;;;23.98;10.00;;;3.30;99.90;;;;;;5014522;28;20574;-76
2022/02/25 08:51:32;;;;;;;14.98;9.32;;;3.40;99.90;;;;;;5013438;28;20049;-75
2022/02/25 08:53:59;;;;;;;18.30;8.60;;;3.40;99.90;;;;;;5014170;28;20053;-73
2022/02/25 08:56:26;;;;;;;15.93;9.10;;;3.50;99.90;;;;;;5012560;28;20041;-76
2022/02/25 08:58:53;;;;;;;20.33;11.32;;;3.40;99.90;;;;;;5013073;28;20132;-74
2022/02/25 09:01:22;;;;;;;23.65;11.27;;;3.40;99.90;;;;;;4996270;28;20052;-76
2022/02/25 09:03:50;;;;;;;15.52;10.15;;;3.50;99.90;;;;;;5011622;28;20132;-75
2022/02/25 09:06:17;;;;;;;15.48;9.32;;;3.60;99.90;;;;;;5012338;28;20041;-75
2022/02/25 09:08:43;;;;;;;22.63;10.15;;;3.50;99.90;;;;;;5014566;28;20548;-75
2022/02/25 09:11:11;;;;;;;20.67;10.32;;;3.50;99.90;;;;;;5013430;28;20675;-75
2022/02/25 09:13:38;;;;;;;18.27;9.43;;;3.40;99.90;;;;;;5014427;28;20057;-74
2022/02/25 09:16:05;;;;;;;18.95;10.93;;;3.40;99.90;;;;;;5011825;28;20049;-75
2022/02/25 09:18:32;;;;;;;18.35;10.77;;;3.40;99.90;;;;;;4996833;28;20179;-74
2022/02/25 09:20:59;;;;;;;19.05;9.70;;;3.50;99.90;;;;;;5014641;28;20045;-77
2022/02/25 09:23:26;;;;;;;21.98;11.43;;;3.50;99.90;;;;;;5036538;23;20049;-75
2022/02/25 09:25:52;;;;;;;23.90;9.27;;;3.60;99.90;;;;;;5027089;28;20056;-76
2022/02/25 09:28:19;;;;;;;20.25;9.63;;;3.60;99.90;;;;;;5020265;28;20049;-77
2022/02/25 09:30:48;;;;;;;14.43;7.85;;;3.60;99.90;;;;;;5026039;28;20037;-76
2022/02/25 09:33:15;;;;;;;15.85;7.85;;;3.50;99.90;;;;;;5037330;28;20799;-78
2022/02/25 09:35:42;;;;;;;18.48;8.98;;;3.40;99.90;;;;;;5031681;28;20079;-75
2022/02/25 09:38:09;;;;;;;12.07;8.57;;;3.40;99.90;;;;;;5030078;28;20080;-77
2022/02/25 09:40:37;;;;;;;22.50;10.48;;;3.30;99.90;;;;;;5042522;28;20098;-75
2022/02/25 09:43:05;;;;;;;19.42;8.90;;;3.30;99.90;;;;;;5041151;28;20086;-75
2022/02/25 09:45:32;;;;;;;16.33;9.65;;;3.30;99.90;;;;;;5039535;28;20110;-78
2022/02/25 09:48:07;;;;;;;13.32;7.68;;;3.10;99.90;;;;;;5029474;28;20455;-75
2022/02/25 09:50:34;;;;;;;18.45;8.20;;;3.00;99.90;;;;;;5020337;28;20739;-77
2022/02/25 09:53:01;;;;;;;18.35;9.40;;;2.60;99.90;;;;;;5019663;28;20061;-74
2022/02/25 09:55:32;;;;;;;31.63;8.73;;;2.20;99.90;;;;;;5028464;28;20072;-74
2022/02/25 09:58:03;;;;;;;19.25;9.02;;;2.00;99.90;;;;;;5021983;28;20560;-76
2022/02/25 10:00:32;;;;;;;23.90;9.52;;;1.90;99.90;;;;;;5039110;28;20662;-77
2022/02/25 10:03:02;;;;;;;20.63;8.98;;;1.80;99.90;;;;;;5036221;28;20107;-78
2022/02/25 10:05:32;;;;;;;28.50;11.57;;;1.80;99.90;;;;;;5021731;28;20553;-77
2022/02/25 10:08:16;;;;;;;23.05;10.48;;;1.80;99.90;;;;;;5034915;28;20083;-76
2022/02/25 10:10:50;;;;;;;25.45;11.98;;;1.80;99.90;;;;;;5036166;28;20172;-75
2022/02/25 10:13:19;;;;;;;18.80;9.77;;;1.80;99.90;;;;;;5059035;28;20045;-75
2022/02/25 10:15:49;;;;;;;38.90;13.60;;;1.80;99.90;;;;;;5042286;28;20051;-77
2022/02/25 10:18:23;;;;;;;29.25;10.48;;;1.90;99.90;;;;;;5042430;28;20160;-77
2022/02/25 10:20:59;;;;;;;33.90;13.25;;;2.00;99.90;;;;;;5042669;28;20052;-75
2022/02/25 10:23:29;;;;;;;30.45;12.98;;;2.00;99.90;;;;;;5043339;28;20103;-77
2022/02/25 10:26:11;;;;;;;40.55;16.77;;;2.00;99.90;;;;;;5042548;28;20056;-75
2022/02/25 10:28:40;;;;;;;27.70;14.05;;;2.10;99.90;;;;;;5042226;28;20080;-75
2022/02/25 10:31:17;;;;;;;33.80;14.98;;;2.00;99.90;;;;;;5041829;28;20095;-75
2022/02/25 10:33:45;;;;;;;25.50;12.93;;;2.10;99.90;;;;;;5043028;28;20582;-76
2022/02/25 10:36:12;;;;;;;27.75;12.88;;;2.10;99.90;;;;;;5034339;28;20049;-75
2022/02/25 10:38:39;;;;;;;40.35;15.27;;;2.10;99.90;;;;;;5028805;28;20666;-76
2022/02/25 10:41:06;;;;;;;35.53;16.52;;;2.20;99.90;;;;;;5042783;28;20041;-76
2022/02/25 10:43:32;;;;;;;40.22;17.25;;;2.20;99.90;;;;;;5043328;28;20041;-76
2022/02/25 10:46:11;;;;;;;43.35;19.60;;;2.30;99.90;;;;;;5040784;28;20080;-76
2022/02/25 10:48:38;;;;;;;36.78;17.27;;;2.40;99.90;;;;;;5042950;28;20048;-74
2022/02/25 10:51:07;;;;;;;33.97;12.98;;;2.50;99.90;;;;;;5041401;28;20607;-75
2022/02/25 10:53:51;;;;;;;37.08;15.88;;;2.50;99.90;;;;;;5042255;28;20572;-75
2022/02/25 10:56:20;;;;;;;31.13;14.45;;;2.50;99.90;;;;;;5027070;28;20041;-75
2022/02/25 10:58:52;;;;;;;45.55;17.45;;;2.50;99.90;;;;;;5025946;28;20212;-75
2022/02/25 11:01:38;;;;;;;41.17;18.52;;;2.70;99.90;;;;;;5041560;28;20502;-76
2022/02/25 11:04:09;;;;;;;40.53;16.75;;;2.80;99.90;;;;;;5022695;28;20041;-74
2022/02/25 11:06:36;;;;;;;33.45;14.82;;;2.80;99.90;;;;;;5035558;28;20192;-74
2022/02/25 11:09:05;;;;;;;36.10;15.93;;;2.90;99.90;;;;;;5040078;28;20052;-75
2022/02/25 11:11:33;;;;;;;37.92;17.23;;;2.90;99.90;;;;;;5043132;28;20076;-75
2022/02/25 11:14:05;;;;;;;36.13;15.70;;;2.90;99.90;;;;;;5046556;28;20041;-74
2022/02/25 11:16:33;;;;;;;35.40;16.45;;;3.00;99.90;;;;;;5041999;28;20341;-75
2022/02/25 11:19:26;;;;;;;28.33;15.38;;;3.10;99.90;;;;;;5042441;28;20064;-75
2022/02/25 11:21:54;;;;;;;39.13;16.50;;;3.00;99.90;;;;;;5044004;28;20130;-74
2022/02/25 11:24:23;;;;;;;39.92;16.08;;;3.10;99.90;;;;;;5041164;28;20762;-75
2022/02/25 11:27:09;;;;;;;31.15;15.75;;;3.20;99.90;;;;;;5043928;28;20055;-74
2022/02/25 11:29:43;;;;;;;34.78;16.35;;;3.10;99.90;;;;;;5042483;28;20045;-74
2022/02/25 11:32:14;;;;;;;44.88;17.65;;;3.20;99.90;;;;;;5041355;28;20573;-74
2022/02/25 11:34:43;;;;;;;43.08;15.40;;;3.20;99.90;;;;;;5039460;28;20128;-73
2022/02/25 11:37:12;;;;;;;43.50;16.65;;;3.30;99.90;;;;;;5028986;28;20037;-75
2022/02/25 11:39:44;;;;;;;33.85;13.98;;;3.40;99.90;;;;;;5049941;28;20029;-74
2022/02/25 11:42:28;;;;;;;36.95;12.52;;;3.40;99.90;;;;;;5042067;28;20048;-74
2022/02/25 11:45:15;;;;;;;43.80;15.63;;;3.40;99.90;;;;;;5042433;28;20055;-76
2022/02/25 11:47:50;;;;;;;28.75;13.98;;;3.40;99.90;;;;;;5042382;28;20049;-74
2022/02/25 11:50:30;;;;;;;33.03;14.02;;;3.40;99.90;;;;;;5037529;28;20054;-75
2022/02/25 11:53:16;;;;;;;35.00;14.35;;;3.50;99.90;;;;;;5021108;28;20748;-74
2022/02/25 11:55:46;;;;;;;27.50;13.77;;;3.70;99.90;;;;;;5022134;28;20061;-74
2022/02/25 11:58:39;;;;;;;30.50;12.77;;;3.80;99.90;;;;;;5021676;28;20421;-74
2022/02/25 12:01:13;;;;;;;27.33;12.57;;;4.00;99.90;;;;;;5042166;28;20106;-74
2022/02/25 12:04:03;;;;;;;37.22;13.40;;;4.20;99.90;;;;;;5040449;28;20135;-75
2022/02/25 12:06:55;;;;;;;31.77;14.77;;;4.30;99.90;;;;;;5033461;28;20079;-74
2022/02/25 12:09:45;;;;;;;27.27;10.35;;;4.40;99.90;;;;;;5039967;28;20106;-76
2022/02/25 12:12:23;;;;;;;28.85;14.02;;;4.30;99.90;;;;;;5057028;28;20053;-74
2022/02/25 12:15:10;;;;;;;28.95;12.18;;;4.40;99.90;;;;;;5040373;28;20049;-73
2022/02/25 12:17:43;;;;;;;21.35;11.48;;;4.70;99.90;;;;;;5038288;28;20624;-77
2022/02/25 12:20:24;;;;;;;25.80;11.57;;;4.70;99.90;;;;;;5039434;28;20049;-70
2022/02/25 12:22:55;;;;;;;27.13;13.00;;;4.70;99.90;;;;;;5038414;28;20083;-70
2022/02/25 12:25:43;;;;;;;24.73;12.75;;;4.80;99.90;;;;;;5039750;28;20045;-75
2022/02/25 12:28:22;;;;;;;23.15;13.05;;;5.00;99.90;;;;;;5040942;28;20049;-74
2022/02/25 12:30:58;;;;;;;18.27;10.57;;;5.00;99.90;;;;;;5038220;28;20060;-74
2022/02/25 12:33:32;;;;;;;25.80;12.90;;;4.80;99.90;;;;;;5039142;28;20496;-73
2022/02/25 12:36:05;;;;;;;32.50;13.65;;;4.70;99.90;;;;;;5032225;28;20045;-73
2022/02/25 12:38:38;;;;;;;28.20;13.18;;;4.60;99.90;;;;;;5029176;28;20526;-74
2022/02/25 12:41:19;;;;;;;29.95;13.23;;;4.50;99.90;;;;;;5027953;28;20075;-75
2022/02/25 12:43:59;;;;;;;35.42;14.35;;;4.40;99.90;;;;;;5020292;28;20076;-75
2022/02/25 12:46:30;;;;;;;29.92;15.07;;;4.40;99.90;;;;;;5019520;28;20041;-74
2022/02/25 12:48:57;;;;;;;30.00;13.60;;;4.30;99.90;;;;;;5035782;28;20087;-74
2022/02/25 12:51:26;;;;;;;21.48;11.65;;;4.10;99.90;;;;;;5040768;28;20053;-74
2022/02/25 12:53:56;;;;;;;24.92;11.75;;;3.90;99.90;;;;;;5039957;28;20132;-75
2022/02/25 13:01:01;;;;;;;17.80;9.30;;;3.60;99.90;;;;;;5039058;28;20930;-74
2022/02/25 13:03:31;;;;;;;18.17;8.85;;;3.50;99.90;;;;;;5035518;28;20068;-74
2022/02/25 13:05:58;;;;;;;29.63;10.70;;;3.40;99.90;;;;;;5038071;28;20044;-73